sensor_id;sensor_type;location;lat;lon;timestamp;P1;durP1;ratioP1;P2;durP2;ratioP2
15693;SDS011;7947;48.834;9.132;2023-10-31T00:00:04;0.40;;;0.38;;
15693;SDS011;7947;48.834;9.132;2023-10-31T00:03:07;0.32;;;0.20;;
15693;SDS011;7947;48.834;9.132;2023-10-31T00:06:12;0.30;;;0.25;;
15693;SDS011;7947;48.834;9.132;2023-10-31T00:09:15;0.93;;;0.40;;
15693;SDS011;7947;48.834;9.132;2023-10-31T00:12:19;0.28;;;0.25;;
15693;SDS011;7947;48.834;9.132;2023-10-31T00:15:21;0.20;;;0.17;;
15693;SDS011;7947;48.834;9.132;2023-10-31T00:18:26;0.40;;;0.30;;
15693;SDS011;7947;48.834;9.132;2023-10-31T00:21:30;0.30;;;0.17;;
15693;SDS011;7947;48.834;9.132;2023-10-31T00:24:33;0.85;;;0.25;;
15693;SDS011;7947;48.834;9.132;2023-10-31T00:27:35;0.55;;;0.38;;
15693;SDS011;7947;48.834;9.132;2023-10-31T00:30:38;0.30;;;0.20;;
15693;SDS011;7947;48.834;9.132;2023-10-31T00:33:41;4.13;;;0.55;;
15693;SDS011;7947;48.834;9.132;2023-10-31T00:36:45;0.10;;;0.10;;
15693;SDS011;7947;48.834;9.132;2023-10-31T00:39:48;0.10;;;0.10;;
15693;SDS011;7947;48.834;9.132;2023-10-31T00:42:50;0.35;;;0.30;;
15693;SDS011;7947;48.834;9.132;2023-10-31T00:45:53;0.40;;;0.20;;
15693;SDS011;7947;48.834;9.132;2023-10-31T00:48:56;0.38;;;0.20;;
15693;SDS011;7947;48.834;9.132;2023-10-31T00:52:00;0.73;;;0.30;;
15693;SDS011;7947;48.834;9.132;2023-10-31T00:55:03;0.20;;;0.20;;
15693;SDS011;7947;48.834;9.132;2023-10-31T00:58:06;0.30;;;0.28;;
15693;SDS011;7947;48.834;9.132;2023-10-31T01:01:09;1.00;;;0.28;;
15693;SDS011;7947;48.834;9.132;2023-10-31T01:04:12;0.25;;;0.10;;
15693;SDS011;7947;48.834;9.132;2023-10-31T01:07:16;0.52;;;0.20;;
15693;SDS011;7947;48.834;9.132;2023-10-31T01:10:19;0.20;;;0.20;;
15693;SDS011;7947;48.834;9.132;2023-10-31T01:13:22;0.20;;;0.13;;
15693;SDS011;7947;48.834;9.132;2023-10-31T01:16:24;0.40;;;0.30;;
15693;SDS011;7947;48.834;9.132;2023-10-31T01:19:27;0.13;;;0.13;;
15693;SDS011;7947;48.834;9.132;2023-10-31T01:22:31;0.20;;;0.20;;
15693;SDS011;7947;48.834;9.132;2023-10-31T01:25:34;0.43;;;0.35;;
15693;SDS011;7947;48.834;9.132;2023-10-31T01:28:37;0.30;;;0.30;;
15693;SDS011;7947;48.834;9.132;2023-10-31T01:31:40;1.30;;;0.28;;
15693;SDS011;7947;48.834;9.132;2023-10-31T01:34:59;0.32;;;0.30;;
15693;SDS011;7947;48.834;9.132;2023-10-31T01:38:04;0.08;;;0.08;;
15693;SDS011;7947;48.834;9.132;2023-10-31T01:41:06;0.63;;;0.17;;
15693;SDS011;7947;48.834;9.132;2023-10-31T01:44:09;0.25;;;0.20;;
15693;SDS011;7947;48.834;9.132;2023-10-31T01:47:12;0.52;;;0.45;;
15693;SDS011;7947;48.834;9.132;2023-10-31T01:50:15;1.08;;;0.30;;
15693;SDS011;7947;48.834;9.132;2023-10-31T01:53:20;0.52;;;0.30;;
15693;SDS011;7947;48.834;9.132;2023-10-31T01:56:24;0.13;;;0.13;;
15693;SDS011;7947;48.834;9.132;2023-10-31T01:59:27;0.40;;;0.30;;
15693;SDS011;7947;48.834;9.132;2023-10-31T02:02:30;0.17;;;0.17;;
15693;SDS011;7947;48.834;9.132;2023-10-31T02:05:35;1.13;;;0.15;;
15693;SDS011;7947;48.834;9.132;2023-10-31T02:08:39;0.47;;;0.30;;
15693;SDS011;7947;48.834;9.132;2023-10-31T02:11:42;0.95;;;0.20;;
15693;SDS011;7947;48.834;9.132;2023-10-31T02:14:45;0.65;;;0.40;;
15693;SDS011;7947;48.834;9.132;2023-10-31T02:17:48;2.05;;;0.30;;
15693;SDS011;7947;48.834;9.132;2023-10-31T02:20:50;0.20;;;0.20;;
15693;SDS011;7947;48.834;9.132;2023-10-31T02:23:58;0.57;;;0.20;;
15693;SDS011;7947;48.834;9.132;2023-10-31T02:27:02;0.35;;;0.10;;
15693;SDS011;7947;48.834;9.132;2023-10-31T02:30:05;0.45;;;0.20;;
15693;SDS011;7947;48.834;9.132;2023-10-31T02:33:09;1.13;;;0.40;;
15693;SDS011;7947;48.834;9.132;2023-10-31T02:36:12;0.50;;;0.30;;
15693;SDS011;7947;48.834;9.132;2023-10-31T02:39:16;0.20;;;0.20;;
15693;SDS011;7947;48.834;9.132;2023-10-31T02:42:19;0.73;;;0.35;;
15693;SDS011;7947;48.834;9.132;2023-10-31T02:45:22;0.10;;;0.10;;
15693;SDS011;7947;48.834;9.132;2023-10-31T02:48:25;0.25;;;0.20;;
15693;SDS011;7947;48.834;9.132;2023-10-31T02:51:28;4.05;;;0.45;;
15693;SDS011;7947;48.834;9.132;2023-10-31T02:54:33;0.15;;;0.15;;
15693;SDS011;7947;48.834;9.132;2023-10-31T02:57:35;0.38;;;0.10;;
15693;SDS011;7947;48.834;9.132;2023-10-31T03:00:38;0.20;;;0.20;;
15693;SDS011;7947;48.834;9.132;2023-10-31T03:03:41;0.93;;;0.40;;
15693;SDS011;7947;48.834;9.132;2023-10-31T03:06:43;0.20;;;0.20;;
15693;SDS011;7947;48.834;9.132;2023-10-31T03:09:48;0.65;;;0.45;;
15693;SDS011;7947;48.834;9.132;2023-10-31T03:12:50;1.05;;;0.40;;
15693;SDS011;7947;48.834;9.132;2023-10-31T03:15:53;1.85;;;0.40;;
15693;SDS011;7947;48.834;9.132;2023-10-31T03:18:56;1.05;;;0.43;;
15693;SDS011;7947;48.834;9.132;2023-10-31T03:21:58;0.20;;;0.20;;
15693;SDS011;7947;48.834;9.132;2023-10-31T03:25:03;0.85;;;0.25;;
15693;SDS011;7947;48.834;9.132;2023-10-31T03:28:14;1.02;;;0.30;;
15693;SDS011;7947;48.834;9.132;2023-10-31T03:31:20;0.95;;;0.38;;
15693;SDS011;7947;48.834;9.132;2023-10-31T03:34:23;0.82;;;0.30;;
15693;SDS011;7947;48.834;9.132;2023-10-31T03:37:25;0.43;;;0.20;;
15693;SDS011;7947;48.834;9.132;2023-10-31T03:40:29;0.40;;;0.20;;
15693;SDS011;7947;48.834;9.132;2023-10-31T03:43:32;0.28;;;0.25;;
15693;SDS011;7947;48.834;9.132;2023-10-31T03:46:35;0.47;;;0.38;;
15693;SDS011;7947;48.834;9.132;2023-10-31T03:49:39;0.95;;;0.30;;
15693;SDS011;7947;48.834;9.132;2023-10-31T03:52:44;0.80;;;0.38;;
15693;SDS011;7947;48.834;9.132;2023-10-31T03:55:48;0.32;;;0.20;;
15693;SDS011;7947;48.834;9.132;2023-10-31T03:58:51;0.60;;;0.30;;
15693;SDS011;7947;48.834;9.132;2023-10-31T04:01:54;0.22;;;0.22;;
15693;SDS011;7947;48.834;9.132;2023-10-31T04:04:57;1.23;;;0.30;;
15693;SDS011;7947;48.834;9.132;2023-10-31T04:07:59;0.40;;;0.25;;
15693;SDS011;7947;48.834;9.132;2023-10-31T04:11:04;0.22;;;0.20;;
15693;SDS011;7947;48.834;9.132;2023-10-31T04:14:07;0.28;;;0.28;;
15693;SDS011;7947;48.834;9.132;2023-10-31T04:17:09;0.10;;;0.10;;
15693;SDS011;7947;48.834;9.132;2023-10-31T04:20:12;0.47;;;0.30;;
15693;SDS011;7947;48.834;9.132;2023-10-31T04:23:15;0.50;;;0.30;;
15693;SDS011;7947;48.834;9.132;2023-10-31T04:26:19;1.83;;;0.40;;
15693;SDS011;7947;48.834;9.132;2023-10-31T04:29:22;1.65;;;0.47;;
15693;SDS011;7947;48.834;9.132;2023-10-31T04:32:25;0.50;;;0.40;;
15693;SDS011;7947;48.834;9.132;2023-10-31T04:35:28;2.45;;;1.02;;
15693;SDS011;7947;48.834;9.132;2023-10-31T04:38:30;0.93;;;0.30;;
15693;SDS011;7947;48.834;9.132;2023-10-31T04:41:34;0.20;;;0.20;;
15693;SDS011;7947;48.834;9.132;2023-10-31T04:44:37;1.48;;;0.38;;
15693;SDS011;7947;48.834;9.132;2023-10-31T04:47:40;0.30;;;0.20;;
15693;SDS011;7947;48.834;9.132;2023-10-31T04:50:44;0.20;;;0.20;;
15693;SDS011;7947;48.834;9.132;2023-10-31T04:53:47;0.38;;;0.25;;
15693;SDS011;7947;48.834;9.132;2023-10-31T04:56:51;0.30;;;0.30;;
15693;SDS011;7947;48.834;9.132;2023-10-31T04:59:53;0.52;;;0.28;;
15693;SDS011;7947;48.834;9.132;2023-10-31T05:02:58;0.28;;;0.20;;
15693;SDS011;7947;48.834;9.132;2023-10-31T05:06:02;2.28;;;0.30;;
15693;SDS011;7947;48.834;9.132;2023-10-31T05:09:06;0.28;;;0.28;;
15693;SDS011;7947;48.834;9.132;2023-10-31T05:12:10;1.75;;;0.30;;
15693;SDS011;7947;48.834;9.132;2023-10-31T05:15:13;0.40;;;0.20;;
15693;SDS011;7947;48.834;9.132;2023-10-31T05:18:16;0.20;;;0.20;;
15693;SDS011;7947;48.834;9.132;2023-10-31T05:21:19;0.30;;;0.20;;
15693;SDS011;7947;48.834;9.132;2023-10-31T05:24:22;1.08;;;0.22;;
15693;SDS011;7947;48.834;9.132;2023-10-31T05:27:27;0.30;;;0.20;;
15693;SDS011;7947;48.834;9.132;2023-10-31T05:30:32;0.30;;;0.30;;
15693;SDS011;7947;48.834;9.132;2023-10-31T05:33:35;0.30;;;0.30;;
15693;SDS011;7947;48.834;9.132;2023-10-31T05:36:38;0.40;;;0.30;;
15693;SDS011;7947;48.834;9.132;2023-10-31T05:39:40;0.35;;;0.15;;
15693;SDS011;7947;48.834;9.132;2023-10-31T05:42:45;3.05;;;0.30;;
15693;SDS011;7947;48.834;9.132;2023-10-31T05:45:47;0.10;;;0.10;;
15693;SDS011;7947;48.834;9.132;2023-10-31T05:48:50;0.40;;;0.20;;
15693;SDS011;7947;48.834;9.132;2023-10-31T05:51:53;0.30;;;0.30;;
15693;SDS011;7947;48.834;9.132;2023-10-31T05:54:56;1.50;;;0.70;;
15693;SDS011;7947;48.834;9.132;2023-10-31T05:58:00;0.73;;;0.55;;
15693;SDS011;7947;48.834;9.132;2023-10-31T06:01:03;0.52;;;0.40;;
15693;SDS011;7947;48.834;9.132;2023-10-31T06:04:06;0.63;;;0.43;;
15693;SDS011;7947;48.834;9.132;2023-10-31T06:07:10;0.50;;;0.17;;
15693;SDS011;7947;48.834;9.132;2023-10-31T06:10:12;0.98;;;0.30;;
15693;SDS011;7947;48.834;9.132;2023-10-31T06:13:17;0.50;;;0.38;;
15693;SDS011;7947;48.834;9.132;2023-10-31T06:16:20;1.38;;;0.60;;
15693;SDS011;7947;48.834;9.132;2023-10-31T06:19:22;3.97;;;0.43;;
15693;SDS011;7947;48.834;9.132;2023-10-31T06:22:25;0.70;;;0.70;;
15693;SDS011;7947;48.834;9.132;2023-10-31T06:25:28;0.77;;;0.30;;
15693;SDS011;7947;48.834;9.132;2023-10-31T06:28:32;1.65;;;0.20;;
15693;SDS011;7947;48.834;9.132;2023-10-31T06:31:43;0.37;;;0.23;;
15693;SDS011;7947;48.834;9.132;2023-10-31T06:34:46;0.35;;;0.30;;
15693;SDS011;7947;48.834;9.132;2023-10-31T06:37:49;1.38;;;0.30;;
15693;SDS011;7947;48.834;9.132;2023-10-31T06:40:52;0.50;;;0.30;;
15693;SDS011;7947;48.834;9.132;2023-10-31T06:43:57;0.45;;;0.28;;
15693;SDS011;7947;48.834;9.132;2023-10-31T06:46:59;0.98;;;0.40;;
15693;SDS011;7947;48.834;9.132;2023-10-31T06:50:02;4.70;;;0.53;;
15693;SDS011;7947;48.834;9.132;2023-10-31T06:53:05;1.10;;;0.20;;
15693;SDS011;7947;48.834;9.132;2023-10-31T06:56:11;0.30;;;0.30;;
15693;SDS011;7947;48.834;9.132;2023-10-31T06:59:15;1.80;;;0.55;;
15693;SDS011;7947;48.834;9.132;2023-10-31T07:02:19;1.33;;;0.30;;
15693;SDS011;7947;48.834;9.132;2023-10-31T07:05:22;0.65;;;0.25;;
15693;SDS011;7947;48.834;9.132;2023-10-31T07:08:26;0.63;;;0.20;;
15693;SDS011;7947;48.834;9.132;2023-10-31T07:11:31;0.63;;;0.30;;
15693;SDS011;7947;48.834;9.132;2023-10-31T07:14:37;1.10;;;0.35;;
15693;SDS011;7947;48.834;9.132;2023-10-31T07:17:40;0.47;;;0.30;;
15693;SDS011;7947;48.834;9.132;2023-10-31T07:20:43;0.55;;;0.20;;
15693;SDS011;7947;48.834;9.132;2023-10-31T07:23:47;0.30;;;0.20;;
15693;SDS011;7947;48.834;9.132;2023-10-31T07:26:51;0.30;;;0.20;;
15693;SDS011;7947;48.834;9.132;2023-10-31T07:29:55;0.65;;;0.40;;
15693;SDS011;7947;48.834;9.132;2023-10-31T07:32:58;0.77;;;0.40;;
15693;SDS011;7947;48.834;9.132;2023-10-31T07:36:01;0.60;;;0.25;;
15693;SDS011;7947;48.834;9.132;2023-10-31T07:39:05;1.02;;;0.40;;
15693;SDS011;7947;48.834;9.132;2023-10-31T07:42:09;0.30;;;0.30;;
15693;SDS011;7947;48.834;9.132;2023-10-31T07:45:13;0.35;;;0.30;;
15693;SDS011;7947;48.834;9.132;2023-10-31T07:48:16;0.38;;;0.28;;
15693;SDS011;7947;48.834;9.132;2023-10-31T07:51:19;0.30;;;0.20;;
15693;SDS011;7947;48.834;9.132;2023-10-31T07:54:22;2.50;;;0.40;;
15693;SDS011;7947;48.834;9.132;2023-10-31T07:57:24;0.77;;;0.40;;
15693;SDS011;7947;48.834;9.132;2023-10-31T08:00:28;2.13;;;0.40;;
15693;SDS011;7947;48.834;9.132;2023-10-31T08:03:32;0.40;;;0.20;;
15693;SDS011;7947;48.834;9.132;2023-10-31T08:06:35;0.30;;;0.25;;
15693;SDS011;7947;48.834;9.132;2023-10-31T08:09:37;1.77;;;0.30;;
15693;SDS011;7947;48.834;9.132;2023-10-31T08:12:40;0.55;;;0.40;;
15693;SDS011;7947;48.834;9.132;2023-10-31T08:15:45;0.68;;;0.30;;
15693;SDS011;7947;48.834;9.132;2023-10-31T08:18:47;1.50;;;0.40;;
15693;SDS011;7947;48.834;9.132;2023-10-31T08:21:51;0.80;;;0.40;;
15693;SDS011;7947;48.834;9.132;2023-10-31T08:24:55;1.30;;;0.63;;
15693;SDS011;7947;48.834;9.132;2023-10-31T08:27:58;0.50;;;0.30;;
15693;SDS011;7947;48.834;9.132;2023-10-31T08:31:02;2.38;;;0.55;;
15693;SDS011;7947;48.834;9.132;2023-10-31T08:34:06;2.03;;;0.60;;
15693;SDS011;7947;48.834;9.132;2023-10-31T08:37:09;1.27;;;0.43;;
15693;SDS011;7947;48.834;9.132;2023-10-31T08:40:11;0.80;;;0.65;;
15693;SDS011;7947;48.834;9.132;2023-10-31T08:43:14;2.30;;;0.50;;
15693;SDS011;7947;48.834;9.132;2023-10-31T08:46:19;0.80;;;0.40;;
15693;SDS011;7947;48.834;9.132;2023-10-31T08:49:23;1.45;;;0.57;;
15693;SDS011;7947;48.834;9.132;2023-10-31T08:52:25;1.38;;;0.40;;
15693;SDS011;7947;48.834;9.132;2023-10-31T08:55:28;1.40;;;0.50;;
15693;SDS011;7947;48.834;9.132;2023-10-31T08:58:32;0.60;;;0.40;;
15693;SDS011;7947;48.834;9.132;2023-10-31T09:01:36;1.38;;;0.60;;
15693;SDS011;7947;48.834;9.132;2023-10-31T09:04:38;1.25;;;0.50;;
15693;SDS011;7947;48.834;9.132;2023-10-31T09:07:41;1.75;;;0.50;;
15693;SDS011;7947;48.834;9.132;2023-10-31T09:10:44;0.68;;;0.32;;
15693;SDS011;7947;48.834;9.132;2023-10-31T09:13:48;0.60;;;0.35;;
15693;SDS011;7947;48.834;9.132;2023-10-31T09:16:52;1.33;;;0.65;;
15693;SDS011;7947;48.834;9.132;2023-10-31T09:19:55;4.32;;;0.93;;
15693;SDS011;7947;48.834;9.132;2023-10-31T09:22:57;1.30;;;0.63;;
15693;SDS011;7947;48.834;9.132;2023-10-31T09:26:00;3.40;;;0.75;;
15693;SDS011;7947;48.834;9.132;2023-10-31T09:29:03;1.27;;;0.50;;
15693;SDS011;7947;48.834;9.132;2023-10-31T09:32:10;2.28;;;0.57;;
15693;SDS011;7947;48.834;9.132;2023-10-31T09:35:13;3.00;;;1.48;;
15693;SDS011;7947;48.834;9.132;2023-10-31T09:38:16;3.85;;;0.68;;
15693;SDS011;7947;48.834;9.132;2023-10-31T09:41:19;1.00;;;0.30;;
15693;SDS011;7947;48.834;9.132;2023-10-31T09:44:21;0.90;;;0.52;;
15693;SDS011;7947;48.834;9.132;2023-10-31T09:47:26;3.00;;;0.60;;
15693;SDS011;7947;48.834;9.132;2023-10-31T09:50:29;1.63;;;0.50;;
15693;SDS011;7947;48.834;9.132;2023-10-31T09:53:32;0.88;;;0.50;;
15693;SDS011;7947;48.834;9.132;2023-10-31T09:56:39;0.88;;;0.47;;
15693;SDS011;7947;48.834;9.132;2023-10-31T09:59:43;0.82;;;0.40;;
15693;SDS011;7947;48.834;9.132;2023-10-31T10:02:47;3.08;;;0.63;;
15693;SDS011;7947;48.834;9.132;2023-10-31T10:05:51;3.65;;;0.80;;
15693;SDS011;7947;48.834;9.132;2023-10-31T10:08:55;0.82;;;0.40;;
15693;SDS011;7947;48.834;9.132;2023-10-31T10:11:58;1.30;;;0.65;;
15693;SDS011;7947;48.834;9.132;2023-10-31T10:15:02;1.38;;;0.57;;
15693;SDS011;7947;48.834;9.132;2023-10-31T10:18:07;1.02;;;0.43;;
15693;SDS011;7947;48.834;9.132;2023-10-31T10:21:10;1.77;;;0.40;;
15693;SDS011;7947;48.834;9.132;2023-10-31T10:24:12;2.20;;;0.85;;
15693;SDS011;7947;48.834;9.132;2023-10-31T10:27:15;2.63;;;0.50;;
15693;SDS011;7947;48.834;9.132;2023-10-31T10:30:22;2.80;;;0.95;;
15693;SDS011;7947;48.834;9.132;2023-10-31T10:33:26;13.05;;;3.08;;
15693;SDS011;7947;48.834;9.132;2023-10-31T10:36:29;2.67;;;0.90;;
15693;SDS011;7947;48.834;9.132;2023-10-31T10:39:34;1.83;;;0.75;;
15693;SDS011;7947;48.834;9.132;2023-10-31T10:42:42;4.25;;;1.55;;
15693;SDS011;7947;48.834;9.132;2023-10-31T10:45:50;6.78;;;2.03;;
15693;SDS011;7947;48.834;9.132;2023-10-31T10:48:59;3.25;;;1.50;;
15693;SDS011;7947;48.834;9.132;2023-10-31T10:52:09;1.77;;;0.80;;
15693;SDS011;7947;48.834;9.132;2023-10-31T10:55:20;0.63;;;0.40;;
15693;SDS011;7947;48.834;9.132;2023-10-31T10:58:27;0.90;;;0.55;;
15693;SDS011;7947;48.834;9.132;2023-10-31T11:01:36;2.13;;;0.73;;
15693;SDS011;7947;48.834;9.132;2023-10-31T11:04:42;2.40;;;0.60;;
15693;SDS011;7947;48.834;9.132;2023-10-31T11:07:46;1.45;;;0.63;;
15693;SDS011;7947;48.834;9.132;2023-10-31T11:10:50;1.38;;;0.88;;
15693;SDS011;7947;48.834;9.132;2023-10-31T11:13:53;0.65;;;0.50;;
15693;SDS011;7947;48.834;9.132;2023-10-31T11:16:59;2.58;;;0.70;;
15693;SDS011;7947;48.834;9.132;2023-10-31T11:20:09;5.95;;;1.17;;
15693;SDS011;7947;48.834;9.132;2023-10-31T11:23:17;2.55;;;0.75;;
15693;SDS011;7947;48.834;9.132;2023-10-31T11:26:20;1.25;;;0.40;;
15693;SDS011;7947;48.834;9.132;2023-10-31T11:29:23;0.88;;;0.40;;
15693;SDS011;7947;48.834;9.132;2023-10-31T11:32:27;1.23;;;0.63;;
15693;SDS011;7947;48.834;9.132;2023-10-31T11:35:32;0.47;;;0.30;;
15693;SDS011;7947;48.834;9.132;2023-10-31T11:38:36;0.85;;;0.40;;
15693;SDS011;7947;48.834;9.132;2023-10-31T11:41:40;1.20;;;0.60;;
15693;SDS011;7947;48.834;9.132;2023-10-31T11:44:54;1.02;;;0.40;;
15693;SDS011;7947;48.834;9.132;2023-10-31T11:47:57;2.10;;;0.60;;
15693;SDS011;7947;48.834;9.132;2023-10-31T11:51:02;1.38;;;0.52;;
15693;SDS011;7947;48.834;9.132;2023-10-31T11:54:05;1.38;;;0.60;;
15693;SDS011;7947;48.834;9.132;2023-10-31T11:57:10;4.47;;;0.70;;
15693;SDS011;7947;48.834;9.132;2023-10-31T12:00:19;0.63;;;0.40;;
15693;SDS011;7947;48.834;9.132;2023-10-31T12:03:23;2.25;;;0.40;;
15693;SDS011;7947;48.834;9.132;2023-10-31T12:06:27;1.85;;;0.68;;
15693;SDS011;7947;48.834;9.132;2023-10-31T12:09:30;0.55;;;0.32;;
15693;SDS011;7947;48.834;9.132;2023-10-31T12:12:34;1.92;;;0.43;;
15693;SDS011;7947;48.834;9.132;2023-10-31T12:15:37;1.45;;;0.47;;
15693;SDS011;7947;48.834;9.132;2023-10-31T12:18:40;1.67;;;0.47;;
15693;SDS011;7947;48.834;9.132;2023-10-31T12:21:44;1.42;;;0.60;;
15693;SDS011;7947;48.834;9.132;2023-10-31T12:24:50;0.40;;;0.30;;
15693;SDS011;7947;48.834;9.132;2023-10-31T12:27:53;2.22;;;0.50;;
15693;SDS011;7947;48.834;9.132;2023-10-31T12:30:56;2.97;;;0.40;;
15693;SDS011;7947;48.834;9.132;2023-10-31T12:34:03;0.88;;;0.55;;
15693;SDS011;7947;48.834;9.132;2023-10-31T12:37:08;0.52;;;0.50;;
15693;SDS011;7947;48.834;9.132;2023-10-31T12:40:12;1.42;;;0.47;;
15693;SDS011;7947;48.834;9.132;2023-10-31T12:43:17;2.38;;;0.70;;
15693;SDS011;7947;48.834;9.132;2023-10-31T12:46:27;0.70;;;0.50;;
15693;SDS011;7947;48.834;9.132;2023-10-31T12:49:30;3.40;;;0.40;;
15693;SDS011;7947;48.834;9.132;2023-10-31T12:52:50;0.68;;;0.32;;
15693;SDS011;7947;48.834;9.132;2023-10-31T12:55:54;0.20;;;0.20;;
15693;SDS011;7947;48.834;9.132;2023-10-31T12:58:57;0.60;;;0.50;;
15693;SDS011;7947;48.834;9.132;2023-10-31T13:02:01;0.98;;;0.40;;
15693;SDS011;7947;48.834;9.132;2023-10-31T13:05:08;0.25;;;0.20;;
15693;SDS011;7947;48.834;9.132;2023-10-31T13:08:14;0.40;;;0.10;;
15693;SDS011;7947;48.834;9.132;2023-10-31T13:11:18;0.35;;;0.28;;
15693;SDS011;7947;48.834;9.132;2023-10-31T13:14:26;0.45;;;0.20;;
15693;SDS011;7947;48.834;9.132;2023-10-31T13:17:29;1.45;;;0.45;;
15693;SDS011;7947;48.834;9.132;2023-10-31T13:20:33;0.10;;;0.10;;
15693;SDS011;7947;48.834;9.132;2023-10-31T13:23:39;0.47;;;0.25;;
15693;SDS011;7947;48.834;9.132;2023-10-31T13:26:43;2.10;;;0.45;;
15693;SDS011;7947;48.834;9.132;2023-10-31T13:29:46;0.50;;;0.20;;
15693;SDS011;7947;48.834;9.132;2023-10-31T13:32:50;1.15;;;0.45;;
15693;SDS011;7947;48.834;9.132;2023-10-31T13:35:54;0.50;;;0.10;;
15693;SDS011;7947;48.834;9.132;2023-10-31T13:38:58;0.20;;;0.20;;
15693;SDS011;7947;48.834;9.132;2023-10-31T13:42:01;0.38;;;0.20;;
15693;SDS011;7947;48.834;9.132;2023-10-31T13:45:04;1.95;;;0.20;;
15693;SDS011;7947;48.834;9.132;2023-10-31T13:48:08;0.85;;;0.40;;
15693;SDS011;7947;48.834;9.132;2023-10-31T13:51:12;0.60;;;0.30;;
15693;SDS011;7947;48.834;9.132;2023-10-31T13:54:16;0.22;;;0.20;;
15693;SDS011;7947;48.834;9.132;2023-10-31T13:57:20;1.17;;;0.38;;
15693;SDS011;7947;48.834;9.132;2023-10-31T14:00:23;2.60;;;0.32;;
15693;SDS011;7947;48.834;9.132;2023-10-31T14:03:26;0.57;;;0.30;;
15693;SDS011;7947;48.834;9.132;2023-10-31T14:06:29;0.68;;;0.40;;
15693;SDS011;7947;48.834;9.132;2023-10-31T14:09:35;1.23;;;0.50;;
15693;SDS011;7947;48.834;9.132;2023-10-31T14:12:37;1.17;;;0.50;;
15693;SDS011;7947;48.834;9.132;2023-10-31T14:15:41;1.42;;;0.63;;
15693;SDS011;7947;48.834;9.132;2023-10-31T14:18:43;1.30;;;0.52;;
15693;SDS011;7947;48.834;9.132;2023-10-31T14:21:47;0.20;;;0.20;;
15693;SDS011;7947;48.834;9.132;2023-10-31T14:24:52;0.38;;;0.20;;
15693;SDS011;7947;48.834;9.132;2023-10-31T14:27:54;0.88;;;0.50;;
15693;SDS011;7947;48.834;9.132;2023-10-31T14:30:57;0.82;;;0.70;;
15693;SDS011;7947;48.834;9.132;2023-10-31T14:34:00;2.10;;;0.77;;
15693;SDS011;7947;48.834;9.132;2023-10-31T14:37:03;0.98;;;0.50;;
15693;SDS011;7947;48.834;9.132;2023-10-31T14:40:09;1.52;;;0.65;;
15693;SDS011;7947;48.834;9.132;2023-10-31T14:43:12;0.95;;;0.38;;
15693;SDS011;7947;48.834;9.132;2023-10-31T14:46:20;1.02;;;0.60;;
15693;SDS011;7947;48.834;9.132;2023-10-31T14:49:22;1.48;;;0.77;;
15693;SDS011;7947;48.834;9.132;2023-10-31T14:52:26;1.90;;;0.80;;
15693;SDS011;7947;48.834;9.132;2023-10-31T14:55:30;1.67;;;0.73;;
15693;SDS011;7947;48.834;9.132;2023-10-31T14:58:33;0.47;;;0.35;;
15693;SDS011;7947;48.834;9.132;2023-10-31T15:01:36;2.20;;;0.65;;
15693;SDS011;7947;48.834;9.132;2023-10-31T15:04:39;1.25;;;0.50;;
15693;SDS011;7947;48.834;9.132;2023-10-31T15:07:42;1.02;;;0.43;;
15693;SDS011;7947;48.834;9.132;2023-10-31T15:10:51;0.68;;;0.40;;
15693;SDS011;7947;48.834;9.132;2023-10-31T15:13:56;0.50;;;0.40;;
15693;SDS011;7947;48.834;9.132;2023-10-31T15:16:59;0.93;;;0.38;;
15693;SDS011;7947;48.834;9.132;2023-10-31T15:20:02;0.55;;;0.40;;
15693;SDS011;7947;48.834;9.132;2023-10-31T15:23:05;0.75;;;0.45;;
15693;SDS011;7947;48.834;9.132;2023-10-31T15:26:10;1.58;;;0.43;;
15693;SDS011;7947;48.834;9.132;2023-10-31T15:29:15;0.95;;;0.57;;
15693;SDS011;7947;48.834;9.132;2023-10-31T15:32:18;3.65;;;0.82;;
15693;SDS011;7947;48.834;9.132;2023-10-31T15:35:21;1.95;;;0.50;;
15693;SDS011;7947;48.834;9.132;2023-10-31T15:38:24;1.52;;;0.60;;
15693;SDS011;7947;48.834;9.132;2023-10-31T15:41:29;1.38;;;0.30;;
15693;SDS011;7947;48.834;9.132;2023-10-31T15:44:33;0.45;;;0.30;;
15693;SDS011;7947;48.834;9.132;2023-10-31T15:47:38;0.65;;;0.35;;
15693;SDS011;7947;48.834;9.132;2023-10-31T15:50:41;1.60;;;0.38;;
15693;SDS011;7947;48.834;9.132;2023-10-31T15:53:44;0.40;;;0.40;;
15693;SDS011;7947;48.834;9.132;2023-10-31T15:56:48;0.55;;;0.35;;
15693;SDS011;7947;48.834;9.132;2023-10-31T15:59:51;2.30;;;1.05;;
15693;SDS011;7947;48.834;9.132;2023-10-31T16:02:53;1.50;;;0.25;;
15693;SDS011;7947;48.834;9.132;2023-10-31T16:05:57;2.28;;;0.28;;
15693;SDS011;7947;48.834;9.132;2023-10-31T16:09:00;2.67;;;1.50;;
15693;SDS011;7947;48.834;9.132;2023-10-31T16:12:05;1.90;;;0.50;;
15693;SDS011;7947;48.834;9.132;2023-10-31T16:15:10;2.75;;;0.57;;
15693;SDS011;7947;48.834;9.132;2023-10-31T16:18:12;2.38;;;0.57;;
15693;SDS011;7947;48.834;9.132;2023-10-31T16:21:15;2.05;;;0.50;;
15693;SDS011;7947;48.834;9.132;2023-10-31T16:24:18;3.70;;;0.55;;
15693;SDS011;7947;48.834;9.132;2023-10-31T16:27:23;1.63;;;0.68;;
15693;SDS011;7947;48.834;9.132;2023-10-31T16:30:26;1.50;;;0.80;;
15693;SDS011;7947;48.834;9.132;2023-10-31T16:33:29;0.60;;;0.60;;
15693;SDS011;7947;48.834;9.132;2023-10-31T16:36:32;1.65;;;0.60;;
15693;SDS011;7947;48.834;9.132;2023-10-31T16:39:35;1.75;;;0.60;;
15693;SDS011;7947;48.834;9.132;2023-10-31T16:42:39;1.83;;;0.82;;
15693;SDS011;7947;48.834;9.132;2023-10-31T16:45:42;1.23;;;0.70;;
15693;SDS011;7947;48.834;9.132;2023-10-31T16:48:45;2.67;;;0.60;;
15693;SDS011;7947;48.834;9.132;2023-10-31T16:51:49;1.38;;;0.45;;
15693;SDS011;7947;48.834;9.132;2023-10-31T16:54:52;1.75;;;0.70;;
15693;SDS011;7947;48.834;9.132;2023-10-31T16:57:56;3.60;;;0.73;;
15693;SDS011;7947;48.834;9.132;2023-10-31T17:00:59;0.77;;;0.50;;
15693;SDS011;7947;48.834;9.132;2023-10-31T17:04:03;1.02;;;0.70;;
15693;SDS011;7947;48.834;9.132;2023-10-31T17:07:06;1.10;;;0.70;;
15693;SDS011;7947;48.834;9.132;2023-10-31T17:10:09;4.90;;;1.58;;
15693;SDS011;7947;48.834;9.132;2023-10-31T17:13:13;2.95;;;1.73;;
15693;SDS011;7947;48.834;9.132;2023-10-31T17:16:16;1.85;;;1.33;;
15693;SDS011;7947;48.834;9.132;2023-10-31T17:19:19;2.40;;;1.65;;
15693;SDS011;7947;48.834;9.132;2023-10-31T17:22:22;3.25;;;1.77;;
15693;SDS011;7947;48.834;9.132;2023-10-31T17:25:25;2.30;;;1.70;;
15693;SDS011;7947;48.834;9.132;2023-10-31T17:28:29;2.65;;;1.23;;
15693;SDS011;7947;48.834;9.132;2023-10-31T17:31:32;1.85;;;0.73;;
15693;SDS011;7947;48.834;9.132;2023-10-31T17:34:39;1.98;;;0.90;;
15693;SDS011;7947;48.834;9.132;2023-10-31T17:37:42;1.15;;;1.00;;
15693;SDS011;7947;48.834;9.132;2023-10-31T17:40:45;1.42;;;0.90;;
15693;SDS011;7947;48.834;9.132;2023-10-31T17:43:49;1.95;;;1.08;;
15693;SDS011;7947;48.834;9.132;2023-10-31T17:46:52;1.63;;;0.95;;
15693;SDS011;7947;48.834;9.132;2023-10-31T17:49:54;2.67;;;1.20;;
15693;SDS011;7947;48.834;9.132;2023-10-31T17:52:57;0.95;;;0.75;;
15693;SDS011;7947;48.834;9.132;2023-10-31T17:56:00;1.23;;;0.98;;
15693;SDS011;7947;48.834;9.132;2023-10-31T17:59:05;1.70;;;0.80;;
15693;SDS011;7947;48.834;9.132;2023-10-31T18:02:08;2.63;;;1.33;;
15693;SDS011;7947;48.834;9.132;2023-10-31T18:05:11;1.60;;;1.20;;
15693;SDS011;7947;48.834;9.132;2023-10-31T18:08:14;2.00;;;1.02;;
15693;SDS011;7947;48.834;9.132;2023-10-31T18:11:17;2.08;;;1.15;;
15693;SDS011;7947;48.834;9.132;2023-10-31T18:14:22;3.17;;;1.65;;
15693;SDS011;7947;48.834;9.132;2023-10-31T18:17:25;7.10;;;2.47;;
15693;SDS011;7947;48.834;9.132;2023-10-31T18:20:27;5.95;;;3.40;;
15693;SDS011;7947;48.834;9.132;2023-10-31T18:23:30;3.83;;;2.42;;
15693;SDS011;7947;48.834;9.132;2023-10-31T18:26:34;3.22;;;1.90;;
15693;SDS011;7947;48.834;9.132;2023-10-31T18:29:42;1.88;;;0.93;;
15693;SDS011;7947;48.834;9.132;2023-10-31T18:32:45;1.48;;;1.05;;
15693;SDS011;7947;48.834;9.132;2023-10-31T18:35:48;2.10;;;1.40;;
15693;SDS011;7947;48.834;9.132;2023-10-31T18:38:51;2.00;;;1.00;;
15693;SDS011;7947;48.834;9.132;2023-10-31T18:41:54;2.47;;;1.30;;